Terminal Aerodrome Forecast
Issued by NWS

Home | Current Version | Previous Version | Text Only | Print | Product List | Glossary On
Versions: 1 2 3 4 5 6 7 8 9 10 11 12 13 14
000
FTUS44 KTSA 291140
TAFMLC
TAF
KMLC 291140Z 2912/3012 17009G16KT P6SM BKN024 BKN030 OVC035
     FM291600 17014G24KT P6SM VCTS BKN025CB
      TEMPO 2918/2922 VRB20G30KT 1SM +TSRA OVC015CB
     FM300200 27011G18KT P6SM BKN020=

USA.gov is the U.S. government's official web portal to all federal, state and local government web resources and services.